Time;durP1;ratioP1;P1;durP2;ratioP2;P2;SDS_P1;SDS_P2;PMS_P1;PMS_P2;Temp;Humidity;BMP_temperature;BMP_pressure;BME280_temperature;BME280_humidity;BME280_pressure;Samples;Min_cycle;Max_cycle;Signal;HPM_P1;HPM_P2
2020/12/05 00:01:59;;;;;;;11.93;6.10;;;1.40;99.90;;;;;;5035748;28;37164;-75
2020/12/05 00:04:25;;;;;;;16.67;6.60;;;1.30;99.90;;;;;;5009121;28;38385;-74
2020/12/05 00:06:51;;;;;;;12.37;6.23;;;1.40;99.90;;;;;;5023362;28;38194;-76
2020/12/05 00:09:17;;;;;;;17.60;7.20;;;1.40;99.90;;;;;;5019713;28;38391;-75
2020/12/05 00:11:43;;;;;;;12.20;7.93;;;1.40;99.90;;;;;;5017776;28;38482;-75
2020/12/05 00:14:09;;;;;;;15.03;7.93;;;1.40;99.90;;;;;;5020802;28;36842;-75
2020/12/05 00:16:35;;;;;;;18.27;8.30;;;1.30;99.90;;;;;;5043603;28;41846;-75
2020/12/05 00:19:01;;;;;;;12.80;7.50;;;1.30;99.90;;;;;;5006816;28;38004;-76
2020/12/05 00:21:28;;;;;;;19.20;8.50;;;1.20;99.90;;;;;;5019161;28;38270;-75
2020/12/05 00:23:54;;;;;;;14.37;7.77;;;1.20;99.90;;;;;;5045900;28;37232;-75
2020/12/05 00:26:21;;;;;;;14.53;7.97;;;1.30;99.90;;;;;;5019611;28;37321;-76
2020/12/05 00:28:48;;;;;;;18.73;8.37;;;1.30;99.90;;;;;;5029443;28;38750;-75
2020/12/05 00:31:16;;;;;;;18.57;7.90;;;1.30;99.90;;;;;;5017864;28;37535;-75
2020/12/05 00:33:42;;;;;;;16.47;8.93;;;1.30;99.90;;;;;;5031828;28;35857;-75
2020/12/05 00:36:18;;;;;;;20.30;9.70;;;1.30;99.90;;;;;;5008223;28;38847;-76
2020/12/05 00:38:46;;;;;;;13.33;8.33;;;1.30;99.90;;;;;;5018147;28;38172;-75
2020/12/05 00:41:17;;;;;;;21.40;8.10;;;1.40;99.90;;;;;;5029600;28;37088;-75
2020/12/05 00:43:44;;;;;;;13.83;8.17;;;1.30;99.90;;;;;;5021411;28;37014;-75
2020/12/05 00:46:10;;;;;;;16.23;8.30;;;1.30;99.90;;;;;;5005289;28;37744;-75
2020/12/05 00:48:36;;;;;;;18.73;9.47;;;1.30;99.90;;;;;;5006465;28;37152;-75
2020/12/05 00:51:02;;;;;;;13.07;7.73;;;1.20;99.90;;;;;;5052581;28;38161;-75
2020/12/05 00:53:28;;;;;;;17.83;8.83;;;1.20;99.90;;;;;;5015525;28;37278;-74
2020/12/05 00:55:54;;;;;;;14.83;8.40;;;1.20;99.90;;;;;;5037026;28;38780;-75
2020/12/05 00:58:20;;;;;;;12.83;9.10;;;1.20;99.90;;;;;;5019478;28;38975;-75
2020/12/05 01:00:47;;;;;;;19.53;8.07;;;1.30;99.90;;;;;;5009568;28;36843;-74
2020/12/05 01:03:13;;;;;;;16.43;10.67;;;1.30;99.90;;;;;;5031453;28;37273;-75
2020/12/05 01:05:39;;;;;;;13.73;8.87;;;1.30;99.90;;;;;;5022371;28;39234;-75
2020/12/05 01:08:06;;;;;;;24.43;9.53;;;1.30;99.90;;;;;;5025437;28;39321;-75
2020/12/05 01:10:33;;;;;;;18.87;9.20;;;1.20;99.90;;;;;;5011676;28;38149;-75
2020/12/05 01:13:02;;;;;;;23.23;9.47;;;1.20;99.90;;;;;;5018700;28;36214;-75
2020/12/05 01:15:29;;;;;;;14.33;8.37;;;1.20;99.90;;;;;;5018493;28;47213;-75
2020/12/05 01:17:55;;;;;;;14.93;8.33;;;1.20;99.90;;;;;;5015615;28;39551;-75
2020/12/05 01:20:22;;;;;;;17.03;9.47;;;1.20;99.90;;;;;;5018697;28;37127;-75
2020/12/05 01:22:48;;;;;;;18.37;9.50;;;1.20;99.90;;;;;;5024184;28;35662;-75
2020/12/05 01:25:14;;;;;;;12.13;8.10;;;1.20;99.90;;;;;;5021829;28;39445;-75
2020/12/05 01:27:43;;;;;;;15.30;7.53;;;1.30;99.90;;;;;;5015934;28;38620;-75
2020/12/05 01:30:10;;;;;;;15.47;8.33;;;1.30;99.90;;;;;;5053584;28;37162;-75
2020/12/05 01:32:37;;;;;;;18.57;8.70;;;1.40;99.90;;;;;;5017421;28;36273;-75
2020/12/05 01:35:03;;;;;;;14.67;7.43;;;1.40;99.90;;;;;;5015868;28;37814;-75
2020/12/05 01:37:29;;;;;;;14.97;8.00;;;1.50;99.90;;;;;;5022199;28;37398;-75
2020/12/05 01:39:55;;;;;;;14.77;7.50;;;1.60;99.90;;;;;;5029394;28;37173;-75
2020/12/05 01:42:21;;;;;;;17.57;8.57;;;1.60;99.90;;;;;;5019660;28;37612;-75
2020/12/05 01:44:47;;;;;;;13.03;7.93;;;1.70;99.90;;;;;;5018931;28;38127;-75
2020/12/05 01:47:14;;;;;;;12.53;7.03;;;1.70;99.90;;;;;;5021636;28;37846;-75
2020/12/05 01:49:40;;;;;;;15.43;7.27;;;1.70;99.90;;;;;;5018732;28;38721;-75
2020/12/05 01:52:07;;;;;;;13.53;7.53;;;1.80;99.90;;;;;;5024375;28;36923;-75
2020/12/05 01:54:34;;;;;;;11.73;7.43;;;1.70;99.90;;;;;;5015636;28;39290;-75
2020/12/05 01:57:02;;;;;;;11.27;6.57;;;1.70;99.90;;;;;;5011348;28;38206;-75
2020/12/05 01:59:29;;;;;;;12.80;6.70;;;1.60;99.90;;;;;;5014273;28;48988;-75
2020/12/05 02:02:01;;;;;;;12.40;6.47;;;1.50;99.90;;;;;;5014418;28;36853;-75
2020/12/05 02:04:29;;;;;;;13.93;7.95;;;1.50;99.90;;;;;;5012622;28;47090;-75
2020/12/05 02:07:28;;;;;;;13.57;7.70;;;1.50;99.90;;;;;;5022768;28;37352;-75
2020/12/05 02:09:57;;;;;;;14.43;8.60;;;1.50;99.90;;;;;;5047555;28;48223;-75
2020/12/05 02:12:27;;;;;;;13.60;7.10;;;1.50;99.90;;;;;;5024981;28;36100;-75
2020/12/05 02:15:01;;;;;;;11.13;7.50;;;1.40;99.90;;;;;;5021724;28;39229;-75
2020/12/05 02:17:29;;;;;;;13.70;8.40;;;1.50;99.90;;;;;;5013566;28;47547;-75
2020/12/05 02:19:55;;;;;;;12.13;7.40;;;1.50;99.90;;;;;;5016074;28;38511;-75
2020/12/05 02:22:27;;;;;;;14.10;7.47;;;1.50;99.90;;;;;;5054270;28;36082;-74
2020/12/05 02:24:57;;;;;;;14.50;8.35;;;1.40;99.90;;;;;;5018259;28;38722;-75
2020/12/05 02:27:24;;;;;;;16.23;8.57;;;1.50;99.90;;;;;;5028542;28;38636;-75
2020/12/05 02:29:50;;;;;;;17.93;8.57;;;1.50;99.90;;;;;;5020810;28;37726;-75
2020/12/05 02:32:17;;;;;;;12.13;7.50;;;1.50;99.90;;;;;;5005225;28;36952;-75
2020/12/05 02:34:43;;;;;;;11.53;7.90;;;1.50;99.90;;;;;;5030413;28;37862;-75
2020/12/05 02:37:12;;;;;;;16.73;9.20;;;1.50;99.90;;;;;;5033509;28;41159;-75
2020/12/05 02:39:43;;;;;;;12.23;7.40;;;1.50;99.90;;;;;;5019103;28;38742;-75
2020/12/05 02:42:14;;;;;;;18.13;8.43;;;1.50;99.90;;;;;;5008995;28;38146;-75
2020/12/05 02:44:51;;;;;;;16.67;8.67;;;1.40;99.90;;;;;;5002635;28;39232;-75
2020/12/05 02:47:18;;;;;;;17.60;7.73;;;1.30;99.90;;;;;;5039589;28;37564;-75
2020/12/05 02:49:45;;;;;;;14.47;8.20;;;1.20;99.90;;;;;;4999808;28;38133;-75
2020/12/05 02:52:12;;;;;;;16.13;8.33;;;1.20;99.90;;;;;;5022572;28;36877;-75
2020/12/05 02:54:38;;;;;;;17.67;8.33;;;1.20;99.90;;;;;;5018602;28;38943;-77
2020/12/05 02:57:04;;;;;;;10.87;7.80;;;1.30;99.90;;;;;;5004636;28;39196;-77
2020/12/05 02:59:31;;;;;;;15.90;8.17;;;1.30;99.90;;;;;;5025288;28;36998;-75
2020/12/05 03:01:57;;;;;;;12.83;8.00;;;1.20;99.90;;;;;;5021082;28;36575;-76
2020/12/05 03:04:24;;;;;;;16.43;8.60;;;1.20;99.90;;;;;;5042580;28;39345;-75
2020/12/05 03:06:50;;;;;;;20.50;10.57;;;1.20;99.90;;;;;;5023456;28;38263;-77
2020/12/05 03:09:16;;;;;;;14.90;8.27;;;1.20;99.90;;;;;;5016232;28;37766;-77
2020/12/05 03:11:42;;;;;;;15.23;6.90;;;1.10;99.90;;;;;;5017796;28;37585;-75
2020/12/05 03:14:09;;;;;;;13.57;8.47;;;1.10;99.90;;;;;;5022020;28;38241;-78
2020/12/05 03:16:35;;;;;;;20.33;7.63;;;1.10;99.90;;;;;;5021501;28;39523;-75
2020/12/05 03:19:02;;;;;;;12.67;7.27;;;1.00;99.90;;;;;;5015151;28;37964;-75
2020/12/05 03:21:28;;;;;;;12.20;7.17;;;1.00;99.90;;;;;;5015510;28;47137;-75
2020/12/05 03:23:54;;;;;;;18.03;8.87;;;1.00;99.90;;;;;;5025602;28;38878;-75
2020/12/05 03:26:20;;;;;;;11.33;7.33;;;1.00;99.90;;;;;;5024384;28;38282;-74
2020/12/05 03:28:46;;;;;;;13.30;6.77;;;1.00;99.90;;;;;;5054651;28;37080;-75
2020/12/05 03:31:30;;;;;;;11.23;6.67;;;1.00;99.90;;;;;;5020448;28;37335;-75
2020/12/05 03:33:58;;;;;;;20.37;8.87;;;1.00;99.90;;;;;;5021359;28;39045;-75
2020/12/05 03:36:24;;;;;;;16.20;8.67;;;1.00;99.90;;;;;;5023178;28;37711;-74
2020/12/05 03:38:53;;;;;;;12.40;6.70;;;1.00;99.90;;;;;;5005852;28;37743;-75
2020/12/05 03:41:23;;;;;;;12.63;7.80;;;1.10;99.90;;;;;;5019119;28;37255;-75
2020/12/05 03:43:50;;;;;;;17.33;8.13;;;1.10;99.90;;;;;;5035117;28;37583;-75
2020/12/05 03:46:16;;;;;;;15.70;7.50;;;1.20;99.90;;;;;;5023024;28;38941;-75
2020/12/05 03:48:43;;;;;;;18.73;8.50;;;1.20;99.90;;;;;;5023353;28;38253;-75
2020/12/05 03:51:09;;;;;;;13.87;7.63;;;1.10;99.90;;;;;;5022483;28;36373;-75
2020/12/05 03:53:35;;;;;;;12.97;6.87;;;1.10;99.90;;;;;;5036667;28;38309;-75
2020/12/05 03:56:01;;;;;;;14.27;7.60;;;1.10;99.90;;;;;;5022359;28;38527;-75
2020/12/05 03:58:27;;;;;;;12.90;7.40;;;1.10;99.90;;;;;;5019940;28;35175;-75
2020/12/05 04:00:53;;;;;;;12.90;7.43;;;1.10;99.90;;;;;;5025751;28;36195;-75
2020/12/05 04:03:19;;;;;;;10.53;7.23;;;1.00;99.90;;;;;;5017351;28;38677;-75
2020/12/05 04:05:45;;;;;;;12.13;6.87;;;1.00;99.90;;;;;;5023549;28;38499;-75
2020/12/05 04:08:11;;;;;;;14.87;6.93;;;0.90;99.90;;;;;;5038960;28;38394;-75
2020/12/05 04:10:38;;;;;;;12.87;7.37;;;0.80;99.90;;;;;;5021869;28;36258;-75
2020/12/05 04:13:04;;;;;;;10.63;7.87;;;0.80;99.90;;;;;;5018056;28;38992;-75
2020/12/05 04:15:30;;;;;;;8.90;6.30;;;0.80;99.90;;;;;;5017273;28;37181;-75
2020/12/05 04:17:56;;;;;;;11.90;6.97;;;0.90;99.90;;;;;;5022828;28;36997;-75
2020/12/05 04:20:22;;;;;;;15.97;9.40;;;0.80;99.90;;;;;;5016332;28;35943;-75
2020/12/05 04:22:48;;;;;;;15.50;8.30;;;0.80;99.90;;;;;;5019583;28;38829;-75
2020/12/05 04:25:14;;;;;;;12.00;6.93;;;0.80;99.90;;;;;;5037520;28;40936;-75
2020/12/05 04:27:40;;;;;;;13.00;7.90;;;0.80;99.90;;;;;;5016727;28;37918;-75
2020/12/05 04:30:07;;;;;;;18.67;8.47;;;0.80;99.90;;;;;;5021783;28;36705;-75
2020/12/05 04:32:33;;;;;;;13.20;6.90;;;0.70;99.90;;;;;;5018023;28;39000;-78
2020/12/05 04:34:59;;;;;;;10.87;6.40;;;0.80;99.90;;;;;;5037111;28;37954;-75
2020/12/05 04:37:26;;;;;;;12.70;8.40;;;0.70;99.90;;;;;;5019119;28;37261;-75
2020/12/05 04:39:52;;;;;;;12.57;7.73;;;0.80;99.90;;;;;;5002837;28;37408;-75
2020/12/05 04:42:18;;;;;;;13.77;8.00;;;0.80;99.90;;;;;;4999433;28;39822;-75
2020/12/05 04:44:46;;;;;;;14.00;8.13;;;0.80;99.90;;;;;;5010729;28;38695;-75
2020/12/05 04:47:15;;;;;;;14.00;7.70;;;0.90;99.90;;;;;;5005291;28;37488;-75
2020/12/05 04:49:42;;;;;;;19.27;9.17;;;1.00;99.90;;;;;;5029683;28;36138;-75
2020/12/05 04:52:21;;;;;;;13.03;7.13;;;1.00;99.90;;;;;;5024981;28;39829;-75
2020/12/05 04:54:55;;;;;;;9.53;7.07;;;1.00;99.90;;;;;;5021052;28;38451;-75
2020/12/05 04:57:26;;;;;;;13.40;8.00;;;1.00;99.90;;;;;;5023785;28;38047;-75
2020/12/05 04:59:54;;;;;;;14.13;8.23;;;1.10;99.90;;;;;;5017778;28;37293;-75
2020/12/05 05:02:26;;;;;;;8.23;6.27;;;1.20;99.90;;;;;;5032326;28;37514;-76
2020/12/05 05:04:52;;;;;;;15.25;7.10;;;1.30;99.90;;;;;;5009111;28;38049;-75
2020/12/05 05:07:20;;;;;;;15.83;7.40;;;1.40;99.90;;;;;;5035386;28;37000;-74
2020/12/05 05:10:00;;;;;;;15.47;7.07;;;1.60;99.90;;;;;;5012700;28;37281;-75
2020/12/05 05:12:32;;;;;;;14.13;8.23;;;1.70;99.90;;;;;;5017094;28;39180;-75
2020/12/05 05:14:58;;;;;;;15.05;7.88;;;1.70;99.90;;;;;;5021973;28;39101;-75
2020/12/05 05:17:25;;;;;;;9.83;6.80;;;1.70;99.90;;;;;;5032414;28;37241;-75
2020/12/05 05:19:52;;;;;;;11.87;7.03;;;1.70;99.90;;;;;;5024626;28;37267;-78
2020/12/05 05:22:22;;;;;;;11.17;7.43;;;1.80;99.90;;;;;;5018183;28;38497;-78
2020/12/05 05:25:03;;;;;;;11.40;7.33;;;1.80;99.90;;;;;;5022032;28;37491;-75
2020/12/05 05:27:29;;;;;;;12.90;7.03;;;1.70;99.90;;;;;;5016065;28;46700;-77
2020/12/05 05:30:10;;;;;;;8.80;6.57;;;1.70;99.90;;;;;;5013296;28;37442;-75
2020/12/05 05:32:44;;;;;;;13.33;6.97;;;1.70;99.90;;;;;;5000115;28;47274;-77
2020/12/05 05:35:13;;;;;;;14.77;7.50;;;1.60;99.90;;;;;;5004447;28;40497;-77
2020/12/05 05:37:41;;;;;;;11.90;6.97;;;1.60;99.90;;;;;;5007586;28;38844;-77
2020/12/05 05:40:10;;;;;;;14.63;7.70;;;1.60;99.90;;;;;;4999334;28;37547;-76
2020/12/05 05:42:41;;;;;;;13.83;8.23;;;1.70;99.90;;;;;;5030633;28;38071;-77
2020/12/05 05:45:22;;;;;;;12.57;7.90;;;1.60;99.90;;;;;;5031641;28;37608;-77
2020/12/05 05:47:51;;;;;;;13.80;8.13;;;1.60;99.90;;;;;;5015488;28;37371;-77
2020/12/05 05:50:39;;;;;;;11.53;7.77;;;1.60;99.90;;;;;;5026451;28;38143;-77
2020/12/05 05:53:10;;;;;;;15.60;9.23;;;1.60;99.90;;;;;;5021691;28;39636;-77
2020/12/05 05:55:50;;;;;;;14.73;8.77;;;1.50;99.90;;;;;;5029986;28;37069;-77
2020/12/05 05:58:18;;;;;;;16.27;9.10;;;1.50;99.90;;;;;;5003782;28;39062;-77
2020/12/05 06:00:47;;;;;;;9.57;7.07;;;1.50;99.90;;;;;;5053715;28;37073;-77
2020/12/05 06:03:18;;;;;;;17.30;8.33;;;1.50;99.90;;;;;;5036338;28;41064;-77
2020/12/05 06:05:49;;;;;;;16.60;11.40;;;1.40;99.90;;;;;;5022895;28;37113;-77
2020/12/05 06:08:29;;;;;;;18.47;10.43;;;1.50;99.90;;;;;;5020780;28;38299;-74
2020/12/05 06:11:00;;;;;;;12.23;8.33;;;1.40;99.90;;;;;;5014691;28;38564;-77
2020/12/05 06:13:28;;;;;;;17.40;9.13;;;1.40;99.90;;;;;;5012158;28;47864;-76
2020/12/05 06:15:56;;;;;;;11.00;8.97;;;1.40;99.90;;;;;;5032695;28;38623;-74
2020/12/05 06:18:23;;;;;;;13.87;10.23;;;1.50;99.90;;;;;;5034889;28;36534;-75
2020/12/05 06:20:49;;;;;;;15.73;11.60;;;1.40;99.90;;;;;;5022969;28;36243;-75
2020/12/05 06:23:37;;;;;;;15.77;10.60;;;1.40;99.90;;;;;;5016381;28;38854;-75
2020/12/05 06:26:07;;;;;;;18.10;11.27;;;1.40;99.90;;;;;;5018459;28;38570;-75
2020/12/05 06:28:39;;;;;;;18.40;11.33;;;1.40;99.90;;;;;;5014419;28;37840;-75
2020/12/05 06:31:05;;;;;;;12.18;9.07;;;1.50;99.90;;;;;;5017243;28;38757;-75
2020/12/05 06:33:43;;;;;;;11.63;7.70;;;1.50;99.90;;;;;;5018412;28;39591;-75
2020/12/05 06:36:27;;;;;;;17.20;9.83;;;1.50;99.90;;;;;;5036117;28;37364;-75
2020/12/05 06:39:22;;;;;;;20.27;9.93;;;1.60;99.90;;;;;;5018248;28;38079;-74
2020/12/05 06:41:50;;;;;;;14.47;9.63;;;1.70;99.90;;;;;;5014409;28;46844;-75
2020/12/05 06:44:21;;;;;;;19.70;9.73;;;1.70;99.90;;;;;;5018605;28;41537;-75
2020/12/05 06:47:00;;;;;;;15.33;9.90;;;1.80;99.90;;;;;;5034193;28;38577;-75
2020/12/05 06:49:38;;;;;;;16.63;8.70;;;1.90;99.90;;;;;;5005680;28;48580;-75
2020/12/05 06:52:26;;;;;;;16.77;10.00;;;2.00;99.90;;;;;;5017149;28;37194;-75
2020/12/05 06:55:14;;;;;;;17.30;10.60;;;2.10;99.90;;;;;;5016398;28;39151;-75
2020/12/05 06:57:42;;;;;;;14.47;10.77;;;2.10;99.90;;;;;;5013094;28;47385;-75
2020/12/05 07:00:15;;;;;;;17.63;11.30;;;2.20;99.90;;;;;;5012327;28;37090;-75
2020/12/05 07:02:53;;;;;;;18.67;10.80;;;2.30;99.90;;;;;;5030954;28;36291;-75
2020/12/05 07:05:19;;;;;;;19.10;11.37;;;2.40;99.90;;;;;;5017582;28;38894;-76
2020/12/05 07:07:46;;;;;;;18.97;11.50;;;2.50;99.90;;;;;;5015352;28;37510;-75
2020/12/05 07:10:13;;;;;;;19.07;12.20;;;2.60;99.90;;;;;;5030086;28;37351;-75
2020/12/05 07:12:40;;;;;;;16.90;11.70;;;2.60;99.90;;;;;;5049401;28;36716;-76
2020/12/05 07:15:26;;;;;;;16.50;11.60;;;2.60;99.90;;;;;;5013626;28;38597;-76
2020/12/05 07:17:58;;;;;;;17.97;10.80;;;2.70;99.90;;;;;;5014391;28;38880;-76
2020/12/05 07:20:25;;;;;;;17.53;10.43;;;2.70;99.90;;;;;;5013882;28;38291;-75
2020/12/05 07:22:52;;;;;;;17.50;11.77;;;2.80;99.90;;;;;;5017281;28;37141;-76
2020/12/05 07:25:19;;;;;;;23.57;11.97;;;2.80;99.90;;;;;;5044638;28;37656;-76
2020/12/05 07:27:46;;;;;;;16.23;10.43;;;2.80;99.90;;;;;;5019091;28;39481;-77
2020/12/05 07:30:13;;;;;;;15.63;10.30;;;2.80;99.90;;;;;;5017116;28;36981;-76
2020/12/05 07:32:41;;;;;;;17.43;11.07;;;2.80;99.90;;;;;;5017862;28;38391;-76
2020/12/05 07:35:15;;;;;;;16.80;9.93;;;2.90;99.90;;;;;;5017834;28;41050;-75
2020/12/05 07:37:42;;;;;;;17.57;11.00;;;2.90;99.90;;;;;;5020404;28;37734;-75
2020/12/05 07:40:08;;;;;;;14.10;10.20;;;2.90;99.90;;;;;;5048188;28;36854;-75
2020/12/05 07:42:35;;;;;;;13.77;9.77;;;3.00;99.90;;;;;;5019761;28;38068;-75
2020/12/05 07:45:12;;;;;;;15.37;10.70;;;3.00;99.90;;;;;;5019507;28;38972;-76
2020/12/05 07:47:40;;;;;;;14.27;10.40;;;3.00;99.90;;;;;;5020702;28;38046;-76
2020/12/05 07:50:08;;;;;;;15.53;10.43;;;3.10;99.90;;;;;;5021091;28;38604;-76
2020/12/05 07:52:34;;;;;;;13.47;10.17;;;3.10;99.90;;;;;;5032692;28;36435;-76
2020/12/05 07:55:03;;;;;;;17.73;9.60;;;3.10;99.90;;;;;;5020960;28;38983;-76
2020/12/05 07:57:31;;;;;;;14.37;9.43;;;3.00;99.90;;;;;;5021042;28;48733;-76
2020/12/05 08:00:14;;;;;;;13.40;9.33;;;3.00;99.90;;;;;;5014666;28;37856;-76
2020/12/05 08:03:13;;;;;;;14.85;9.52;;;2.90;99.90;;;;;;5016964;28;48755;-76
2020/12/05 08:05:54;;;;;;;13.40;10.13;;;2.80;99.90;;;;;;5025150;28;48147;-76
2020/12/05 08:08:20;;;;;;;17.87;10.90;;;2.80;99.90;;;;;;5024470;28;37862;-75
2020/12/05 08:10:46;;;;;;;15.47;10.47;;;2.80;99.90;;;;;;5012431;28;38564;-75
2020/12/05 08:13:21;;;;;;;13.07;9.77;;;2.90;99.90;;;;;;5017089;28;37577;-75
2020/12/05 08:15:51;;;;;;;15.53;10.20;;;2.90;99.90;;;;;;5016888;28;39845;-75
2020/12/05 08:18:20;;;;;;;16.23;10.27;;;3.00;99.90;;;;;;5018906;28;38658;-75
2020/12/05 08:20:47;;;;;;;17.70;10.60;;;3.10;99.90;;;;;;5015416;28;39322;-75
2020/12/05 08:23:21;;;;;;;17.77;10.53;;;3.10;99.90;;;;;;5017625;28;37961;-75
2020/12/05 08:25:49;;;;;;;18.07;9.37;;;3.10;99.90;;;;;;5038554;28;38994;-75
2020/12/05 08:28:18;;;;;;;14.93;9.67;;;3.10;99.90;;;;;;4990082;28;39888;-75
2020/12/05 08:30:45;;;;;;;14.27;10.37;;;3.10;99.90;;;;;;5020468;28;37101;-75
2020/12/05 08:33:13;;;;;;;13.57;8.93;;;3.10;99.90;;;;;;5009779;28;36081;-75
2020/12/05 08:35:40;;;;;;;15.03;10.70;;;3.00;99.90;;;;;;5019393;28;39099;-75
2020/12/05 08:38:10;;;;;;;16.53;10.33;;;3.00;99.90;;;;;;5024768;28;39003;-76
2020/12/05 08:40:37;;;;;;;14.27;9.00;;;3.00;99.90;;;;;;5034145;28;36987;-75
2020/12/05 08:43:03;;;;;;;15.93;10.47;;;3.00;99.90;;;;;;5021538;28;37343;-75
2020/12/05 08:45:30;;;;;;;15.40;10.50;;;3.00;99.90;;;;;;5037630;28;38068;-75
2020/12/05 08:47:56;;;;;;;11.60;8.87;;;2.90;99.90;;;;;;5020409;28;39057;-76
2020/12/05 08:50:22;;;;;;;12.67;9.37;;;2.90;99.90;;;;;;5040681;28;37157;-76
2020/12/05 08:52:52;;;;;;;13.80;10.40;;;2.90;99.90;;;;;;5035949;28;37833;-76
2020/12/05 08:55:22;;;;;;;16.33;9.90;;;3.00;99.90;;;;;;5004423;28;39534;-76
2020/12/05 08:57:55;;;;;;;14.07;9.80;;;3.00;99.90;;;;;;5036350;28;38780;-76
2020/12/05 09:00:23;;;;;;;14.90;9.00;;;3.10;99.90;;;;;;5033193;28;37057;-77
2020/12/05 09:02:49;;;;;;;16.97;9.87;;;3.10;99.90;;;;;;5045063;28;37816;-77
2020/12/05 09:05:15;;;;;;;14.37;9.23;;;3.10;99.90;;;;;;5037357;28;39877;-76
2020/12/05 09:07:51;;;;;;;12.10;9.00;;;3.10;99.90;;;;;;5021833;28;38132;-76
2020/12/05 09:10:18;;;;;;;14.90;10.60;;;3.20;99.90;;;;;;5015192;28;36863;-76
2020/12/05 09:12:44;;;;;;;12.53;9.73;;;3.20;99.90;;;;;;5041047;28;37050;-77
2020/12/05 09:15:10;;;;;;;17.37;9.63;;;3.20;99.90;;;;;;5040927;28;38034;-76
2020/12/05 09:17:36;;;;;;;17.47;9.50;;;3.30;99.90;;;;;;5023248;28;37487;-76
2020/12/05 09:20:23;;;;;;;11.93;8.53;;;3.30;99.90;;;;;;5011257;28;37689;-78
2020/12/05 09:22:50;;;;;;;16.73;9.53;;;3.40;99.90;;;;;;5023657;28;36990;-77
2020/12/05 09:25:36;;;;;;;15.80;9.77;;;3.50;99.90;;;;;;5020762;28;39885;-76
2020/12/05 09:28:11;;;;;;;17.73;10.07;;;3.60;99.90;;;;;;5024371;28;38196;-76
2020/12/05 09:30:38;;;;;;;14.33;9.10;;;3.70;99.90;;;;;;5057656;28;37049;-76
2020/12/05 09:33:15;;;;;;;13.30;9.50;;;3.70;99.90;;;;;;5024830;28;37959;-77
2020/12/05 09:35:42;;;;;;;12.70;9.10;;;3.80;99.90;;;;;;5040810;28;38278;-76
2020/12/05 09:38:08;;;;;;;20.53;9.03;;;3.80;99.90;;;;;;5039485;28;38440;-78
2020/12/05 09:40:34;;;;;;;19.00;9.63;;;3.80;99.90;;;;;;5028483;28;38059;-77
2020/12/05 09:43:01;;;;;;;13.07;9.13;;;3.90;99.90;;;;;;5025890;28;37615;-77
2020/12/05 09:45:27;;;;;;;12.00;9.03;;;3.90;99.90;;;;;;5013178;28;46771;-77
2020/12/05 09:47:54;;;;;;;13.20;7.90;;;4.00;99.90;;;;;;5004088;28;37963;-77
2020/12/05 09:50:21;;;;;;;12.40;8.93;;;4.00;99.90;;;;;;5022293;28;38167;-77
2020/12/05 09:52:48;;;;;;;17.93;7.80;;;4.10;99.90;;;;;;5025431;28;36875;-77
2020/12/05 09:55:14;;;;;;;10.40;6.77;;;4.20;99.90;;;;;;5039657;28;38096;-76
2020/12/05 09:57:40;;;;;;;10.90;6.27;;;4.30;99.90;;;;;;5024972;28;38802;-77
2020/12/05 10:00:09;;;;;;;9.13;6.47;;;4.30;99.90;;;;;;5023742;28;38549;-76
2020/12/05 10:02:36;;;;;;;11.77;7.13;;;4.30;99.90;;;;;;5035649;28;36070;-77
2020/12/05 10:05:07;;;;;;;11.13;7.20;;;4.40;99.90;;;;;;5020662;28;39152;-76
2020/12/05 10:07:33;;;;;;;13.53;6.80;;;4.40;99.90;;;;;;5039418;28;47101;-77
2020/12/05 10:09:59;;;;;;;12.10;8.83;;;4.40;99.90;;;;;;4996774;28;38467;-77
2020/12/05 10:12:25;;;;;;;14.60;7.17;;;4.50;99.90;;;;;;4993342;28;37115;-77
2020/12/05 10:14:51;;;;;;;11.13;6.80;;;4.40;99.90;;;;;;5023214;28;37553;-76
2020/12/05 10:17:17;;;;;;;9.80;6.80;;;4.40;99.90;;;;;;5011509;28;39418;-76
2020/12/05 10:19:43;;;;;;;8.70;6.30;;;4.40;99.90;;;;;;5006065;28;38199;-75
2020/12/05 10:22:10;;;;;;;12.47;6.50;;;4.40;99.90;;;;;;5018131;28;37064;-76
2020/12/05 10:24:36;;;;;;;8.80;6.27;;;4.40;99.90;;;;;;5022660;28;37420;-76
2020/12/05 10:27:02;;;;;;;16.67;7.33;;;4.50;99.90;;;;;;5013168;28;38476;-76
2020/12/05 10:29:28;;;;;;;8.07;6.20;;;4.50;99.90;;;;;;5035804;28;37470;-75
2020/12/05 10:31:54;;;;;;;11.90;6.60;;;4.50;99.90;;;;;;5023528;28;37000;-76
2020/12/05 10:34:21;;;;;;;10.73;5.70;;;4.50;99.90;;;;;;5018695;28;40564;-76
2020/12/05 10:36:48;;;;;;;11.37;6.07;;;4.50;99.90;;;;;;5009506;28;38176;-76
2020/12/05 10:39:15;;;;;;;12.00;6.77;;;4.60;99.90;;;;;;5059494;28;36515;-75
2020/12/05 10:41:42;;;;;;;8.27;5.80;;;4.60;99.90;;;;;;5009489;28;36993;-76
2020/12/05 10:44:10;;;;;;;10.67;6.03;;;4.60;99.90;;;;;;4999293;28;39937;-77
2020/12/05 10:46:44;;;;;;;10.80;5.40;;;4.70;99.90;;;;;;5008054;28;37998;-76
2020/12/05 10:49:11;;;;;;;11.77;5.60;;;4.70;99.90;;;;;;5046551;28;37216;-76
2020/12/05 10:51:38;;;;;;;7.97;6.20;;;4.70;99.90;;;;;;5023301;28;38020;-76
2020/12/05 10:54:05;;;;;;;9.63;5.50;;;4.80;99.90;;;;;;5008006;28;38646;-76
2020/12/05 10:56:32;;;;;;;9.67;5.53;;;4.80;99.90;;;;;;5018424;28;38746;-76
2020/12/05 10:58:58;;;;;;;13.83;5.93;;;4.80;99.90;;;;;;4998424;28;37901;-76
2020/12/05 11:01:24;;;;;;;7.87;5.80;;;4.70;99.90;;;;;;5000376;28;37641;-76
2020/12/05 11:03:50;;;;;;;8.37;5.30;;;4.70;99.90;;;;;;5016639;28;37450;-76
2020/12/05 11:06:24;;;;;;;9.17;6.23;;;4.70;99.90;;;;;;5001872;28;39561;-76
2020/12/05 11:08:50;;;;;;;11.67;6.07;;;4.80;99.90;;;;;;5005657;28;37767;-76
2020/12/05 11:11:17;;;;;;;14.63;6.10;;;4.90;99.90;;;;;;5004637;28;35991;-75
2020/12/05 11:13:43;;;;;;;9.40;5.80;;;5.00;99.90;;;;;;5007221;28;39579;-74
2020/12/05 11:16:10;;;;;;;11.17;5.37;;;5.10;99.90;;;;;;5015585;28;38464;-74
2020/12/05 11:18:37;;;;;;;10.07;4.90;;;5.20;99.90;;;;;;5017313;28;39529;-75
2020/12/05 11:21:03;;;;;;;9.70;5.13;;;5.20;99.90;;;;;;5001351;28;37349;-75
2020/12/05 11:23:29;;;;;;;8.17;4.87;;;5.30;99.90;;;;;;5013091;28;38304;-74
2020/12/05 11:25:55;;;;;;;8.47;5.00;;;5.20;99.90;;;;;;5020276;28;38533;-74
2020/12/05 11:28:21;;;;;;;10.50;4.47;;;5.10;99.90;;;;;;5020200;28;37937;-75
2020/12/05 11:30:47;;;;;;;5.50;4.17;;;5.10;99.90;;;;;;5018584;28;35907;-76
2020/12/05 11:33:13;;;;;;;6.67;4.70;;;5.00;99.90;;;;;;5018540;28;39332;-75
2020/12/05 11:35:39;;;;;;;11.20;5.20;;;5.00;99.90;;;;;;5042858;28;37487;-75
2020/12/05 11:38:05;;;;;;;9.43;4.73;;;5.00;99.90;;;;;;5033608;28;37080;-75
2020/12/05 11:40:31;;;;;;;8.47;4.90;;;5.00;99.90;;;;;;5017288;28;38205;-74
2020/12/05 11:42:57;;;;;;;7.03;4.60;;;5.00;99.90;;;;;;5032347;28;37994;-75
2020/12/05 11:45:23;;;;;;;8.60;4.43;;;5.10;99.90;;;;;;5024174;28;38457;-75
2020/12/05 11:47:49;;;;;;;6.67;4.13;;;5.20;99.90;;;;;;5044811;28;36859;-75
2020/12/05 11:50:15;;;;;;;10.67;4.17;;;5.30;99.90;;;;;;5040781;28;36772;-75
2020/12/05 11:52:43;;;;;;;8.23;4.07;;;5.40;99.90;;;;;;5021171;28;37933;-75
2020/12/05 11:55:10;;;;;;;7.80;3.87;;;5.30;99.90;;;;;;5033036;28;38630;-76
2020/12/05 11:57:37;;;;;;;6.70;3.93;;;5.40;99.90;;;;;;5015395;28;35015;-75
2020/12/05 12:00:04;;;;;;;7.00;3.90;;;5.40;99.90;;;;;;5017236;28;37310;-77
2020/12/05 12:02:30;;;;;;;7.77;4.57;;;5.50;99.90;;;;;;5025273;28;38897;-76
2020/12/05 12:04:56;;;;;;;6.57;3.80;;;5.60;99.90;;;;;;5019222;28;39065;-75
2020/12/05 12:07:22;;;;;;;6.20;3.60;;;5.60;99.90;;;;;;5021604;28;38036;-76
2020/12/05 12:09:48;;;;;;;11.90;4.30;;;5.60;99.90;;;;;;5024282;28;37220;-75
2020/12/05 12:12:14;;;;;;;6.93;3.87;;;5.50;99.90;;;;;;5013097;28;39675;-75
2020/12/05 12:14:40;;;;;;;9.87;3.50;;;5.60;99.90;;;;;;5028141;28;37078;-75
2020/12/05 12:17:06;;;;;;;9.10;3.10;;;5.60;99.90;;;;;;5025170;28;37302;-74
2020/12/05 12:19:32;;;;;;;7.90;3.57;;;5.60;99.90;;;;;;5035463;28;37003;-74
2020/12/05 12:21:58;;;;;;;6.80;3.60;;;5.70;99.90;;;;;;5029926;28;38777;-75
2020/12/05 12:24:25;;;;;;;6.50;3.50;;;5.70;99.90;;;;;;5051801;28;37202;-75
2020/12/05 12:26:51;;;;;;;5.73;3.07;;;5.70;99.90;;;;;;5024192;28;38036;-75
2020/12/05 12:29:17;;;;;;;9.27;3.23;;;5.80;99.90;;;;;;5024701;28;38223;-75
2020/12/05 12:31:43;;;;;;;6.27;3.70;;;5.90;99.90;;;;;;5021708;28;38512;-75
2020/12/05 12:34:09;;;;;;;5.37;3.00;;;6.00;99.90;;;;;;5004235;28;38396;-75
2020/12/05 12:36:36;;;;;;;8.03;4.00;;;6.00;99.90;;;;;;5013678;28;37452;-75
2020/12/05 12:39:03;;;;;;;4.53;3.37;;;6.00;99.90;;;;;;5021139;28;37866;-76
2020/12/05 12:41:29;;;;;;;6.40;3.20;;;6.00;99.90;;;;;;5040703;28;38338;-76
2020/12/05 12:43:56;;;;;;;10.70;3.63;;;6.00;99.90;;;;;;5020805;28;38614;-76
2020/12/05 12:46:24;;;;;;;4.40;3.00;;;6.00;99.90;;;;;;5024361;28;36892;-76
2020/12/05 12:48:50;;;;;;;9.83;3.30;;;5.90;99.90;;;;;;5023353;28;37657;-75
2020/12/05 12:51:21;;;;;;;4.80;3.00;;;5.90;99.90;;;;;;5038575;28;38940;-76
2020/12/05 12:53:47;;;;;;;7.23;3.77;;;5.90;99.90;;;;;;5021210;28;38431;-76
2020/12/05 12:56:21;;;;;;;5.53;3.20;;;5.90;99.90;;;;;;4998323;28;35956;-76